createdAt,value
2022-10-22T00:01:42.616Z,99882.13
2022-10-22T00:04:12.331Z,99880.09
2022-10-22T00:06:43.746Z,99877.06
2022-10-22T00:09:15.021Z,99869.73
2022-10-22T00:11:45.007Z,99878.29
2022-10-22T00:14:15.713Z,99870.62
2022-10-22T00:16:45.213Z,99866.80
2022-10-22T00:19:15.560Z,99864.41
2022-10-22T00:21:45.640Z,99871.97
2022-10-22T00:24:15.637Z,99871.97
2022-10-22T00:26:45.486Z,99870.64
2022-10-22T00:29:15.095Z,99866.56
2022-10-22T00:31:46.661Z,99866.09
2022-10-22T00:34:19.943Z,99866.09
2022-10-22T00:36:50.720Z,99851.65
2022-10-22T00:39:23.542Z,99842.77
2022-10-22T00:41:55.173Z,99837.37
2022-10-22T00:45:00.465Z,99838.80
2022-10-22T00:47:45.186Z,99827.82
2022-10-22T00:50:17.820Z,99823.97
2022-10-22T00:52:48.549Z,99822.66
2022-10-22T00:55:20.475Z,99812.67
2022-10-22T00:57:50.983Z,99815.48
2022-10-22T01:00:20.594Z,99799.52
2022-10-22T01:02:52.392Z,99803.25
2022-10-22T01:05:22.070Z,99802.05
2022-10-22T01:07:54.248Z,99794.84
2022-10-22T01:11:00.986Z,99798.43
2022-10-22T01:13:45.735Z,99807.45
2022-10-22T01:16:30.109Z,99809.25
2022-10-22T01:19:38.172Z,99813.23
2022-10-22T01:22:16.414Z,99826.69
2022-10-22T01:25:14.882Z,99845.30
2022-10-22T01:27:59.245Z,99868.72
2022-10-22T01:30:29.167Z,99848.90
2022-10-22T01:33:01.720Z,99832.80
2022-10-22T01:35:34.607Z,99822.70
2022-10-22T01:38:07.584Z,99828.23
2022-10-22T01:40:38.539Z,99827.52
2022-10-22T01:43:11.860Z,99827.52
2022-10-22T01:45:45.092Z,99820.30
2022-10-22T01:48:34.395Z,99817.27
2022-10-22T01:51:19.226Z,99805.50
2022-10-22T01:54:17.861Z,99804.89
2022-10-22T01:56:53.377Z,99817.27
2022-10-22T01:59:47.281Z,99814.08
2022-10-22T02:02:36.612Z,99811.39
2022-10-22T02:05:10.006Z,99806.61
2022-10-22T02:07:51.885Z,99800.73
2022-10-22T02:10:23.205Z,99799.17
2022-10-22T02:12:56.397Z,99794.45
2022-10-22T02:15:28.437Z,99781.04
2022-10-22T02:18:01.633Z,99778.05
2022-10-22T02:20:34.765Z,99790.98
2022-10-22T02:23:06.629Z,99790.98
2022-10-22T02:25:39.484Z,99801.06
2022-10-22T02:28:30.010Z,99801.83
2022-10-22T02:31:05.669Z,99801.83
2022-10-22T02:33:38.465Z,99805.66
2022-10-22T02:36:09.086Z,99805.63
2022-10-22T02:38:40.252Z,99802.70
2022-10-22T02:41:10.370Z,99808.77
2022-10-22T02:43:46.075Z,99816.16
2022-10-22T02:46:15.786Z,99816.16
2022-10-22T02:48:45.651Z,99816.80
2022-10-22T02:51:15.573Z,99808.41
2022-10-22T02:53:45.339Z,99798.89
2022-10-22T02:56:14.937Z,99795.05
2022-10-22T02:58:44.711Z,99793.06
2022-10-22T03:01:16.149Z,99787.28
2022-10-22T03:03:45.495Z,99790.66
2022-10-22T03:06:15.103Z,99796.29
2022-10-22T03:08:45.250Z,99803.80
2022-10-22T03:11:15.233Z,99808.11
2022-10-22T03:13:45.120Z,99804.16
2022-10-22T03:16:14.790Z,99808.00
2022-10-22T03:18:44.724Z,99800.20
2022-10-22T03:21:29.116Z,99805.59
2022-10-22T03:24:00.643Z,99802.00
2022-10-22T03:26:30.551Z,99801.56
2022-10-22T03:29:01.040Z,99808.27
2022-10-22T03:31:31.148Z,99794.71
2022-10-22T03:34:01.173Z,99801.52
2022-10-22T03:36:31.887Z,99803.34
2022-10-22T03:39:03.214Z,99807.34
2022-10-22T03:41:33.754Z,99809.39
2022-10-22T03:44:05.290Z,99810.75
2022-10-22T03:46:35.081Z,99805.70
2022-10-22T03:49:05.038Z,99809.87
2022-10-22T03:51:35.885Z,99811.55
2022-10-22T03:54:05.148Z,99812.50
2022-10-22T03:56:34.901Z,99815.68
2022-10-22T03:59:04.748Z,99809.35
2022-10-22T04:01:35.280Z,99805.55
2022-10-22T04:04:06.235Z,99813.03
2022-10-22T04:06:36.020Z,99812.14
2022-10-22T04:09:06.445Z,99808.55
2022-10-22T04:11:36.201Z,99804.18
2022-10-22T04:14:06.858Z,99805.03
2022-10-22T04:16:36.930Z,99800.12
2022-10-22T04:19:07.027Z,99800.49
2022-10-22T04:21:36.949Z,99795.11
2022-10-22T04:24:07.079Z,99792.48
2022-10-22T04:26:37.477Z,99789.73
2022-10-22T04:29:11.920Z,99796.14
2022-10-22T04:31:40.725Z,99793.31
2022-10-22T04:34:10.549Z,99789.84
2022-10-22T04:36:40.340Z,99787.56
2022-10-22T04:39:09.829Z,99783.28
2022-10-22T04:41:40.638Z,99785.59
2022-10-22T04:44:13.642Z,99791.60
2022-10-22T04:46:41.674Z,99801.70
2022-10-22T04:49:11.377Z,99805.15
2022-10-22T04:51:41.229Z,99817.61
2022-10-22T04:54:11.427Z,99818.15
2022-10-22T04:56:41.592Z,99830.50
2022-10-22T04:59:15.750Z,99831.15
2022-10-22T05:01:46.369Z,99829.55
2022-10-22T05:04:19.635Z,99825.45
2022-10-22T05:06:49.503Z,99816.87
2022-10-22T05:09:21.898Z,99814.66
2022-10-22T05:11:53.644Z,99813.77
2022-10-22T05:14:27.424Z,99812.56
2022-10-22T05:16:57.210Z,99814.36
2022-10-22T05:19:29.619Z,99822.73
2022-10-22T05:22:02.258Z,99826.86
2022-10-22T05:24:33.931Z,99836.77
2022-10-22T05:27:03.727Z,99839.52
2022-10-22T05:29:34.468Z,99842.36
2022-10-22T05:32:04.021Z,99839.23
2022-10-22T05:34:35.457Z,99844.97
2022-10-22T05:37:05.474Z,99849.19
2022-10-22T05:39:37.033Z,99857.59
2022-10-22T05:42:06.789Z,99872.83
2022-10-22T05:44:36.720Z,99875.88
2022-10-22T05:47:06.769Z,99881.20
2022-10-22T05:49:36.632Z,99883.01
2022-10-22T05:52:06.907Z,99884.47
2022-10-22T05:54:36.714Z,99890.28
2022-10-22T05:57:07.562Z,99893.59
2022-10-22T05:59:37.414Z,99891.98
2022-10-22T06:02:07.077Z,99885.05
2022-10-22T06:04:37.086Z,99882.89
2022-10-22T06:07:06.890Z,99880.77
2022-10-22T06:12:08.864Z,99881.61
2022-10-22T06:14:38.635Z,99887.62
2022-10-22T06:17:08.793Z,99887.50
2022-10-22T06:19:38.681Z,99883.94
2022-10-22T06:22:08.219Z,99866.92
2022-10-22T06:24:40.482Z,99869.47
2022-10-22T06:27:09.600Z,99871.63
2022-10-22T06:29:39.399Z,99876.81
2022-10-22T06:32:09.056Z,99867.82
2022-10-22T06:34:39.137Z,99876.72
2022-10-22T06:37:08.703Z,99876.59
2022-10-22T06:39:38.492Z,99876.59
2022-10-22T06:42:08.222Z,99864.84
2022-10-22T06:44:38.000Z,99864.84
2022-10-22T06:47:07.495Z,99871.81
2022-10-22T06:49:37.344Z,99874.10
2022-10-22T06:52:06.918Z,99876.15
2022-10-22T06:54:36.855Z,99885.38
2022-10-22T06:57:06.549Z,99879.27
2022-10-22T06:59:36.412Z,99865.10
2022-10-22T07:02:07.273Z,99877.34
2022-10-22T07:04:37.815Z,99877.34
2022-10-22T07:07:08.274Z,99889.98
2022-10-22T07:09:39.397Z,99887.80
2022-10-22T07:12:09.282Z,99894.30
2022-10-22T07:14:39.349Z,99900.56
2022-10-22T07:17:08.983Z,99898.65
2022-10-22T07:19:38.750Z,99898.65
2022-10-22T07:22:08.520Z,99890.47
2022-10-22T07:24:38.440Z,99889.50
2022-10-22T07:27:10.958Z,99900.46
2022-10-22T07:29:39.718Z,99900.46
2022-10-22T07:32:09.269Z,99902.27
2022-10-22T07:34:41.742Z,99897.68
2022-10-22T07:37:09.520Z,99897.68
2022-10-22T07:39:39.560Z,99903.68
2022-10-22T07:42:09.045Z,99899.84
2022-10-22T07:44:38.856Z,99893.59
2022-10-22T07:47:08.529Z,99874.59
2022-10-22T07:49:38.319Z,99874.59
2022-10-22T07:52:08.683Z,99885.65
2022-10-22T07:54:38.343Z,99890.70
2022-10-22T07:57:08.124Z,99895.98
2022-10-22T07:59:38.210Z,99893.55
2022-10-22T08:02:08.002Z,99898.83
2022-10-22T08:04:39.119Z,99901.91
2022-10-22T08:07:08.982Z,99912.84
2022-10-22T08:09:38.767Z,99912.84
2022-10-22T08:12:08.884Z,99918.92
2022-10-22T08:14:38.494Z,99915.15
2022-10-22T08:17:08.464Z,99907.81
2022-10-22T08:19:38.401Z,99906.72
2022-10-22T08:22:08.194Z,99905.09
2022-10-22T08:24:38.284Z,99903.49
2022-10-22T08:27:08.258Z,99907.93
2022-10-22T08:29:37.933Z,99910.63
2022-10-22T08:32:07.994Z,99922.06
2022-10-22T08:34:38.418Z,99926.42
2022-10-22T08:37:08.553Z,99926.42
2022-10-22T08:39:39.123Z,99935.80
2022-10-22T08:42:32.680Z,99941.00
2022-10-22T08:45:11.114Z,99946.78
2022-10-22T08:47:49.917Z,99939.79
2022-10-22T08:50:22.459Z,99940.98
2022-10-22T08:52:55.359Z,99938.99
2022-10-22T08:55:26.032Z,99937.80
2022-10-22T08:58:06.354Z,99933.59
2022-10-22T09:00:41.769Z,99929.75
2022-10-22T09:03:41.336Z,99929.52
2022-10-22T09:06:16.866Z,99926.66
2022-10-22T09:08:48.440Z,99926.82
2022-10-22T09:11:39.801Z,99924.09
2022-10-22T09:14:12.795Z,99927.23
2022-10-22T09:17:05.363Z,99931.73
2022-10-22T09:19:38.211Z,99934.88
2022-10-22T09:22:26.183Z,99940.20
2022-10-22T09:25:01.523Z,99940.95
2022-10-22T09:27:32.399Z,99948.65
2022-10-22T09:30:02.340Z,99949.91
2022-10-22T09:32:34.072Z,99950.38
2022-10-22T09:35:04.249Z,99960.44
2022-10-22T09:37:34.049Z,99954.19
2022-10-22T09:40:06.640Z,99956.02
2022-10-22T09:42:36.702Z,99953.05
2022-10-22T09:45:07.450Z,99950.52
2022-10-22T09:48:00.611Z,99954.85
2022-10-22T09:50:33.263Z,99954.38
2022-10-22T09:53:22.492Z,99959.95
2022-10-22T09:58:25.865Z,99949.06
2022-10-22T10:00:58.770Z,99954.38
2022-10-22T10:03:32.033Z,99948.58
2022-10-22T10:06:05.900Z,99948.69
2022-10-22T10:08:35.018Z,99959.77
2022-10-22T10:11:13.686Z,99960.95
2022-10-22T10:14:04.385Z,99966.10
2022-10-22T10:16:56.968Z,99968.00
2022-10-22T10:19:38.619Z,99966.02
2022-10-22T10:22:26.499Z,99961.98
2022-10-22T10:25:20.987Z,99959.89
2022-10-22T10:27:56.421Z,99962.03
2022-10-22T10:30:26.472Z,99963.72
2022-10-22T10:33:19.238Z,99975.00
2022-10-22T10:35:53.705Z,99970.45
2022-10-22T10:38:38.509Z,99970.45
2022-10-22T10:41:26.610Z,99966.23
2022-10-22T10:44:20.790Z,99961.77
2022-10-22T10:47:02.298Z,99957.70
2022-10-22T10:49:37.085Z,99966.00
2022-10-22T10:52:18.912Z,99965.44
2022-10-22T10:55:06.695Z,99956.09
2022-10-22T10:58:08.491Z,99952.45
2022-10-22T11:00:41.483Z,99956.02
2022-10-22T11:03:36.746Z,99957.95
2022-10-22T11:06:12.813Z,99957.47
2022-10-22T11:08:57.513Z,99953.20
2022-10-22T11:11:33.270Z,99955.37
2022-10-22T11:14:27.798Z,99947.28
2022-10-22T11:16:59.066Z,99939.63
2022-10-22T11:19:53.706Z,99942.81
2022-10-22T11:22:25.832Z,99946.22
2022-10-22T11:24:55.433Z,99938.31
2022-10-22T11:27:40.192Z,99932.66
2022-10-22T11:30:16.033Z,99930.66
2022-10-22T11:32:48.860Z,99939.34
2022-10-22T11:35:25.696Z,99945.50
2022-10-22T11:37:54.800Z,99942.72
2022-10-22T11:40:27.759Z,99944.89
2022-10-22T11:43:11.997Z,99946.63
2022-10-22T11:45:43.822Z,99950.69
2022-10-22T11:48:19.378Z,99950.54
2022-10-22T11:50:53.778Z,99953.34
2022-10-22T11:53:33.223Z,99960.15
2022-10-22T11:56:10.711Z,99966.11
2022-10-22T11:58:44.711Z,99953.20
2022-10-22T12:01:17.664Z,99946.80
2022-10-22T12:04:08.715Z,99952.12
2022-10-22T12:06:54.005Z,99945.61
2022-10-22T12:09:27.759Z,99937.41
2022-10-22T12:12:15.493Z,99931.15
2022-10-22T12:15:02.773Z,99936.62
2022-10-22T12:17:32.736Z,99934.95
2022-10-22T12:20:05.410Z,99929.78
2022-10-22T12:22:40.304Z,99928.63
2022-10-22T12:25:32.051Z,99927.47
2022-10-22T12:28:01.333Z,99936.02
2022-10-22T12:30:37.670Z,99932.22
2022-10-22T12:33:10.148Z,99932.22
2022-10-22T12:35:48.944Z,99931.23
2022-10-22T12:38:25.508Z,99929.12
2022-10-22T12:40:57.387Z,99932.22
2022-10-22T12:43:30.248Z,99932.22
2022-10-22T12:46:00.939Z,99928.18
2022-10-22T12:48:35.139Z,99928.18
2022-10-22T12:51:09.572Z,99931.30
2022-10-22T12:53:45.451Z,99938.11
2022-10-22T12:56:30.570Z,99936.26
2022-10-22T12:59:06.340Z,99945.01
2022-10-22T13:01:39.027Z,99945.78
2022-10-22T13:04:31.044Z,99944.13
2022-10-22T13:07:09.925Z,99941.86
2022-10-22T13:09:48.655Z,99942.59
2022-10-22T13:12:21.496Z,99938.78
2022-10-22T13:14:53.447Z,99934.44
2022-10-22T13:17:41.777Z,99941.58
2022-10-22T13:20:16.215Z,99940.42
2022-10-22T13:23:03.378Z,99936.43
2022-10-22T13:25:35.713Z,99941.58
2022-10-22T13:28:15.407Z,99943.75
2022-10-22T13:30:58.299Z,99951.66
2022-10-22T13:33:46.158Z,99948.27
2022-10-22T13:36:19.111Z,99950.19
2022-10-22T13:38:50.793Z,99951.23
2022-10-22T13:41:24.047Z,99956.42
2022-10-22T13:43:54.418Z,99958.09
2022-10-22T13:46:26.862Z,99961.39
2022-10-22T13:48:59.464Z,99956.55
2022-10-22T13:51:32.872Z,99959.81
2022-10-22T13:54:03.807Z,99961.11
2022-10-22T13:56:34.604Z,99960.30
2022-10-22T13:59:06.289Z,99960.69
2022-10-22T14:01:37.249Z,99962.78
2022-10-22T14:04:10.235Z,99967.12
2022-10-22T14:06:40.197Z,99964.64
2022-10-22T14:09:14.089Z,99965.73
2022-10-22T14:11:43.963Z,99971.89
2022-10-22T14:14:15.183Z,99970.52
2022-10-22T14:16:46.621Z,99978.23
2022-10-22T14:19:18.810Z,99973.36
2022-10-22T14:21:49.382Z,99973.33
2022-10-22T14:24:18.900Z,99981.23
2022-10-22T14:26:50.600Z,99978.58
2022-10-22T14:29:20.405Z,99983.89
2022-10-22T14:31:51.229Z,99982.53
2022-10-22T14:34:21.036Z,99982.53
2022-10-22T14:36:51.822Z,99985.25
2022-10-22T14:39:21.787Z,99987.28
2022-10-22T14:41:51.592Z,99987.28
2022-10-22T14:44:21.099Z,99989.11
2022-10-22T14:46:52.571Z,99995.75
2022-10-22T14:49:22.437Z,99996.01
2022-10-22T14:51:52.147Z,99996.01
2022-10-22T14:54:23.869Z,99999.86
2022-10-22T14:56:54.077Z,99994.42
2022-10-22T14:59:24.681Z,99991.91
2022-10-22T15:01:54.506Z,99997.02
2022-10-22T15:04:27.194Z,100004.58
2022-10-22T15:06:57.067Z,100004.90
2022-10-22T15:09:26.881Z,100008.98
2022-10-22T15:11:56.698Z,100010.73
2022-10-22T15:14:26.507Z,100008.84
2022-10-22T15:16:56.309Z,100005.69
2022-10-22T15:19:26.282Z,100001.36
2022-10-22T15:21:57.023Z,100005.53
2022-10-22T15:24:26.920Z,100012.12
2022-10-22T15:26:56.915Z,100018.56
2022-10-22T15:29:27.023Z,100024.02
2022-10-22T15:31:58.275Z,100022.26
2022-10-22T15:34:35.335Z,100020.16
2022-10-22T15:37:09.516Z,100023.09
2022-10-22T15:39:43.051Z,100030.89
2022-10-22T15:42:14.477Z,100034.31
2022-10-22T15:44:44.047Z,100041.23
2022-10-22T15:47:13.576Z,100042.70
2022-10-22T15:49:43.376Z,100042.93
2022-10-22T15:52:13.063Z,100045.14
2022-10-22T15:54:43.857Z,100044.80
2022-10-22T15:57:13.905Z,100046.92
2022-10-22T15:59:43.801Z,100050.13
2022-10-22T16:02:13.580Z,100044.61
2022-10-22T16:04:43.452Z,100052.64
2022-10-22T16:07:13.243Z,100052.94
2022-10-22T16:09:43.102Z,100054.25
2022-10-22T16:12:15.369Z,100062.73
2022-10-22T16:14:47.398Z,100061.88
2022-10-22T16:17:17.501Z,100072.39
2022-10-22T16:19:49.514Z,100073.55
2022-10-22T16:22:19.038Z,100075.55
2022-10-22T16:24:48.859Z,100069.92
2022-10-22T16:27:18.737Z,100072.80
2022-10-22T16:29:49.465Z,100074.76
2022-10-22T16:32:19.037Z,100082.02
2022-10-22T16:34:51.860Z,100083.27
2022-10-22T16:37:21.733Z,100081.13
2022-10-22T16:39:51.547Z,100089.09
2022-10-22T16:42:21.102Z,100094.14
2022-10-22T16:44:50.989Z,100092.73
2022-10-22T16:47:21.669Z,100094.06
2022-10-22T16:49:51.480Z,100105.40
2022-10-22T16:52:21.952Z,100107.70
2022-10-22T16:54:51.875Z,100104.64
2022-10-22T16:57:22.402Z,100108.04
2022-10-22T16:59:53.983Z,100104.06
2022-10-22T17:02:23.607Z,100111.34
2022-10-22T17:04:53.427Z,100116.60
2022-10-22T17:07:23.975Z,100117.35
2022-10-22T17:09:54.005Z,100114.35
2022-10-22T17:12:27.606Z,100119.75
2022-10-22T17:14:58.478Z,100128.83
2022-10-22T17:17:28.477Z,100128.20
2022-10-22T17:19:59.156Z,100136.45
2022-10-22T17:22:29.604Z,100144.29
2022-10-22T17:25:19.415Z,100144.29
2022-10-22T17:27:49.385Z,100142.25
2022-10-22T17:30:24.823Z,100149.27
2022-10-22T17:32:52.966Z,100143.40
2022-10-22T17:35:22.918Z,100148.94
2022-10-22T17:37:53.835Z,100146.41
2022-10-22T17:40:23.693Z,100147.25
2022-10-22T17:42:54.916Z,100156.16
2022-10-22T17:45:24.456Z,100164.09
2022-10-22T17:47:55.372Z,100161.97
2022-10-22T17:50:24.892Z,100164.54
2022-10-22T17:52:55.753Z,100170.88
2022-10-22T17:55:25.329Z,100170.52
2022-10-22T17:57:55.153Z,100173.63
2022-10-22T18:00:24.973Z,100175.09
2022-10-22T18:02:57.616Z,100178.59
2022-10-22T18:05:27.505Z,100178.24
2022-10-22T18:07:58.553Z,100182.00
2022-10-22T18:10:27.371Z,100181.83
2022-10-22T18:12:57.962Z,100180.72
2022-10-22T18:15:27.778Z,100182.84
2022-10-22T18:17:57.584Z,100191.21
2022-10-22T18:20:27.464Z,100188.02
2022-10-22T18:22:57.261Z,100195.52
2022-10-22T18:25:29.113Z,100198.09
2022-10-22T18:27:59.824Z,100201.29
2022-10-22T18:30:30.806Z,100204.02
2022-10-22T18:33:00.318Z,100195.79
2022-10-22T18:35:32.828Z,100201.84
2022-10-22T18:38:02.395Z,100198.52
2022-10-22T18:40:33.263Z,100204.59
2022-10-22T18:43:03.551Z,100204.20
2022-10-22T18:45:34.570Z,100202.90
2022-10-22T18:48:05.261Z,100202.90
2022-10-22T18:50:34.076Z,100201.08
2022-10-22T18:53:03.822Z,100199.57
2022-10-22T18:55:34.765Z,100209.84
2022-10-22T18:58:05.596Z,100216.45
2022-10-22T19:00:38.928Z,100213.24
2022-10-22T19:03:08.812Z,100222.47
2022-10-22T19:05:54.307Z,100221.45
2022-10-22T19:08:25.146Z,100223.76
2022-10-22T19:10:55.861Z,100224.39
2022-10-22T19:13:25.794Z,100220.05
2022-10-22T19:15:55.758Z,100227.87
2022-10-22T19:18:25.572Z,100233.18
2022-10-22T19:21:00.342Z,100233.18
2022-10-22T19:23:31.696Z,100236.11
2022-10-22T19:26:07.158Z,100241.50
2022-10-22T19:28:37.714Z,100236.49
2022-10-22T19:31:15.820Z,100239.38
2022-10-22T19:33:46.261Z,100245.48
2022-10-22T19:36:17.982Z,100240.06
2022-10-22T19:38:49.719Z,100249.20
2022-10-22T19:41:21.740Z,100249.20
2022-10-22T19:43:53.401Z,100248.36
2022-10-22T19:46:24.147Z,100254.75
2022-10-22T19:48:56.533Z,100259.56
2022-10-22T19:51:37.434Z,100261.28
2022-10-22T19:54:09.587Z,100258.20
2022-10-22T19:56:41.472Z,100262.05
2022-10-22T19:59:11.362Z,100262.05
2022-10-22T20:01:41.747Z,100271.09
2022-10-22T20:04:16.737Z,100272.43
2022-10-22T20:06:46.672Z,100277.14
2022-10-22T20:09:16.573Z,100282.08
2022-10-22T20:11:46.844Z,100276.30
2022-10-22T20:14:16.444Z,100279.55
2022-10-22T20:16:46.425Z,100282.08
2022-10-22T20:19:19.200Z,100286.18
2022-10-22T20:21:50.559Z,100282.44
2022-10-22T20:24:20.500Z,100288.71
2022-10-22T20:26:50.294Z,100283.28
2022-10-22T20:29:20.105Z,100287.73
2022-10-22T20:31:50.447Z,100286.66
2022-10-22T20:34:20.190Z,100291.13
2022-10-22T20:36:50.014Z,100288.59
2022-10-22T20:39:19.735Z,100288.59
2022-10-22T20:41:51.551Z,100291.23
2022-10-22T20:44:21.050Z,100294.64
2022-10-22T20:46:53.020Z,100294.14
2022-10-22T20:49:24.488Z,100290.52
2022-10-22T20:51:56.632Z,100293.06
2022-10-22T20:54:26.932Z,100297.98
2022-10-22T20:56:58.829Z,100301.74
2022-10-22T20:59:30.359Z,100296.67
2022-10-22T21:02:02.057Z,100300.03
2022-10-22T21:04:31.873Z,100302.34
2022-10-22T21:07:01.681Z,100304.27
2022-10-22T21:09:31.670Z,100304.27
2022-10-22T21:12:03.557Z,100308.37
2022-10-22T21:14:33.912Z,100312.58
2022-10-22T21:17:04.084Z,100316.33
2022-10-22T21:19:33.869Z,100310.65
2022-10-22T21:22:03.773Z,100311.47
2022-10-22T21:24:33.569Z,100307.76
2022-10-22T21:27:04.057Z,100313.91
2022-10-22T21:29:33.869Z,100311.01
2022-10-22T21:32:03.749Z,100313.55
2022-10-22T21:34:38.138Z,100310.42
2022-10-22T21:37:08.119Z,100319.08
2022-10-22T21:39:41.276Z,100321.13
2022-10-22T21:42:09.486Z,100321.02
2022-10-22T21:44:39.293Z,100321.23
2022-10-22T21:47:09.170Z,100323.30
2022-10-22T21:49:39.239Z,100327.27
2022-10-22T21:52:10.208Z,100329.08
2022-10-22T21:54:40.497Z,100325.56
2022-10-22T21:57:11.197Z,100330.11
2022-10-22T21:59:41.194Z,100336.25
2022-10-22T22:02:11.027Z,100332.00
2022-10-22T22:04:41.198Z,100338.17
2022-10-22T22:07:13.764Z,100331.77
2022-10-22T22:09:43.900Z,100335.18
2022-10-22T22:12:13.621Z,100331.32
2022-10-22T22:14:44.576Z,100336.52
2022-10-22T22:17:18.564Z,100339.23
2022-10-22T22:19:48.439Z,100336.14
2022-10-22T22:22:18.226Z,100347.17
2022-10-22T22:24:48.508Z,100347.31
2022-10-22T22:27:18.143Z,100346.94
2022-10-22T22:29:47.951Z,100353.69
2022-10-22T22:32:18.584Z,100351.94
2022-10-22T22:34:48.498Z,100355.70
2022-10-22T22:37:18.260Z,100353.03
2022-10-22T22:39:48.054Z,100351.25
2022-10-22T22:42:17.803Z,100351.25
2022-10-22T22:44:47.590Z,100355.83
2022-10-22T22:47:17.387Z,100359.64
2022-10-22T22:49:47.183Z,100359.37
2022-10-22T22:52:16.920Z,100361.94
2022-10-22T22:54:51.405Z,100361.20
2022-10-22T22:57:20.911Z,100359.13
2022-10-22T22:59:53.985Z,100351.36
2022-10-22T23:02:23.829Z,100361.13
2022-10-22T23:04:55.647Z,100357.79
2022-10-22T23:07:25.542Z,100365.01
2022-10-22T23:09:55.359Z,100353.16
2022-10-22T23:12:24.942Z,100355.58
2022-10-22T23:14:54.751Z,100357.11
2022-10-22T23:17:24.414Z,100361.89
2022-10-22T23:19:54.236Z,100355.12
2022-10-22T23:22:23.834Z,100357.81
2022-10-22T23:24:55.592Z,100362.93
2022-10-22T23:27:25.469Z,100360.50
2022-10-22T23:29:55.635Z,100360.50
2022-10-22T23:32:27.289Z,100369.47
2022-10-22T23:34:57.752Z,100363.05
2022-10-22T23:37:27.844Z,100367.78
2022-10-22T23:39:57.791Z,100363.39
2022-10-22T23:42:27.709Z,100361.63
2022-10-22T23:44:57.552Z,100361.89
2022-10-22T23:47:27.359Z,100362.30
2022-10-22T23:49:57.163Z,100375.48
2022-10-22T23:52:26.974Z,100374.58
2022-10-22T23:54:56.774Z,100374.94
2022-10-22T23:57:26.678Z,100372.20
2022-10-22T23:59:56.480Z,100381.06
